Elrosa, Minnesota
Current Conditions -  °F | °C
As of 12:12 AM on Sunday 21 Dec 2014 (Local Time) from KD39 Reporting Station
Haze Haze  
Wind Chill: 18°   Ceiling: 500
Heat Index: 29°   Visibility: 5mi
Dew Point: 28°   Wind: 16mph
Humidity: 96%   Direction: 160°SSE
Pressure: 29.97"   Gusts: NA
Location:  45.56°N, 94.95°W
Report Text: KD39 210612Z AUTO 16014KT 5SM BR OVC005 M01/M02 A2997 RMK AO2 T10151020
Loading
Personal Weather Stations






























Interactive Weather Map New forecast layout! Learn more

10-Day Weather Forecast

Advertisements
Track Severe Weather on mobile